Time;durP1;ratioP1;P1;durP2;ratioP2;P2;SDS_P1;SDS_P2;PMS_P1;PMS_P2;Temp;Humidity;BMP_temperature;BMP_pressure;BME280_temperature;BME280_humidity;BME280_pressure;Samples;Min_cycle;Max_cycle;Signal;HPM_P1;HPM_P2
2023/02/01 00:00:08;;;;;;;6.07;1.67;;;;;10.80;101727.00;;;;5076947;28;20197;-73
2023/02/01 00:02:39;;;;;;;5.70;1.42;;;;;10.80;101726.00;;;;5083037;28;20194;-73
2023/02/01 00:05:08;;;;;;;4.60;1.38;;;;;10.90;101736.00;;;;5073739;28;20198;-73
2023/02/01 00:07:35;;;;;;;5.38;1.35;;;;;10.90;101738.00;;;;5080827;28;20197;-73
2023/02/01 00:10:03;;;;;;;5.40;1.13;;;;;10.90;101740.00;;;;5085827;28;20218;-73
2023/02/01 00:12:30;;;;;;;7.90;1.23;;;;;10.90;101742.00;;;;5077463;28;20199;-73
2023/02/01 00:14:59;;;;;;;6.63;1.90;;;;;10.90;101740.00;;;;5076098;28;20208;-72
2023/02/01 00:17:26;;;;;;;3.20;0.98;;;;;11.00;101743.00;;;;5089494;28;20205;-73
2023/02/01 00:19:54;;;;;;;13.48;1.95;;;;;11.00;101743.00;;;;5086215;28;20201;-73
2023/02/01 00:22:21;;;;;;;2.72;1.23;;;;;11.00;101743.00;;;;5080580;28;20190;-72
2023/02/01 00:24:48;;;;;;;8.20;1.30;;;;;11.00;101738.00;;;;5083390;28;20213;-72
2023/02/01 00:27:20;;;;;;;7.15;1.48;;;;;11.00;101736.00;;;;5082264;28;20190;-73
2023/02/01 00:29:47;;;;;;;5.00;1.08;;;;;11.00;101737.00;;;;5081154;28;20656;-72
2023/02/01 00:32:16;;;;;;;4.20;1.38;;;;;11.00;101733.00;;;;5091003;28;20198;-74
2023/02/01 00:34:43;;;;;;;4.90;1.38;;;;;11.00;101733.00;;;;5087927;28;20194;-72
2023/02/01 00:37:11;;;;;;;3.50;0.75;;;;;11.00;101733.00;;;;5090308;28;20197;-72
2023/02/01 00:39:38;;;;;;;5.13;1.13;;;;;11.00;101727.00;;;;5082387;28;20210;-72
2023/02/01 00:42:05;;;;;;;5.32;2.00;;;;;11.00;101720.00;;;;5079701;28;20198;-72
2023/02/01 00:44:35;;;;;;;9.70;1.80;;;;;11.00;101722.00;;;;5089665;28;20202;-73
2023/02/01 00:47:02;;;;;;;9.13;1.88;;;;;11.00;101729.00;;;;5085886;28;20263;-72
2023/02/01 00:49:31;;;;;;;3.60;1.13;;;;;11.00;101730.00;;;;5075783;28;20207;-73
2023/02/01 00:51:58;;;;;;;4.65;1.35;;;;;11.00;101731.00;;;;5074738;28;20214;-73
2023/02/01 00:54:26;;;;;;;7.63;1.33;;;;;10.90;101735.00;;;;5089510;28;20210;-73
2023/02/01 00:56:54;;;;;;;6.13;1.50;;;;;10.90;101728.00;;;;5080441;28;20195;-73
2023/02/01 00:59:21;;;;;;;5.97;1.02;;;;;10.90;101736.00;;;;5080496;28;20195;-73
2023/02/01 01:01:48;;;;;;;8.57;1.42;;;;;10.90;101741.00;;;;5076468;28;20186;-72
2023/02/01 01:04:15;;;;;;;8.32;2.17;;;;;10.90;101732.00;;;;5091631;28;20205;-73
2023/02/01 01:06:44;;;;;;;7.07;1.40;;;;;10.90;101721.00;;;;5086335;28;20206;-72
2023/02/01 01:09:11;;;;;;;6.57;1.98;;;;;10.90;101724.00;;;;5086738;28;20202;-72
2023/02/01 01:11:39;;;;;;;8.25;1.40;;;;;10.90;101719.00;;;;5080121;28;20225;-72
2023/02/01 01:14:08;;;;;;;9.75;2.35;;;;;10.90;101723.00;;;;5079314;28;20193;-73
2023/02/01 01:16:35;;;;;;;7.10;2.38;;;;;10.90;101728.00;;;;5077360;28;20186;-72
2023/02/01 01:19:03;;;;;;;11.43;1.83;;;;;10.90;101713.00;;;;5081229;28;20209;-73
2023/02/01 01:21:31;;;;;;;6.47;1.10;;;;;11.00;101719.00;;;;5076191;28;20198;-73
2023/02/01 01:24:00;;;;;;;5.85;1.33;;;;;10.90;101717.00;;;;5089598;28;20594;-72
2023/02/01 01:26:29;;;;;;;3.25;0.90;;;;;11.00;101716.00;;;;5089887;28;20663;-72
2023/02/01 01:28:58;;;;;;;4.75;1.00;;;;;11.00;101712.00;;;;5086258;28;20190;-73
2023/02/01 01:31:25;;;;;;;14.23;1.52;;;;;11.00;101708.00;;;;5071009;28;20226;-73
2023/02/01 01:33:55;;;;;;;6.68;1.33;;;;;11.00;101707.00;;;;5079983;28;20202;-73
2023/02/01 01:36:23;;;;;;;6.85;1.85;;;;;11.00;101715.00;;;;5091174;28;20209;-73
2023/02/01 01:38:51;;;;;;;7.22;1.25;;;;;11.10;101714.00;;;;5083804;28;20231;-73
2023/02/01 01:41:21;;;;;;;9.35;2.35;;;;;11.00;101710.00;;;;5089838;28;20191;-72
2023/02/01 01:43:51;;;;;;;5.47;1.63;;;;;11.10;101720.00;;;;5089935;28;20194;-73
2023/02/01 01:46:20;;;;;;;7.70;1.90;;;;;11.10;101724.00;;;;5077879;28;20230;-72
2023/02/01 01:48:51;;;;;;;6.00;1.83;;;;;11.10;101718.00;;;;5088274;28;20198;-73
2023/02/01 01:51:21;;;;;;;6.38;1.27;;;;;11.10;101708.00;;;;5090380;28;20283;-73
2023/02/01 01:53:57;;;;;;;7.70;1.77;;;;;11.10;101710.00;;;;5086639;28;20219;-72
2023/02/01 01:56:27;;;;;;;5.32;1.42;;;;;11.20;101702.00;;;;5075049;28;20580;-73
2023/02/01 01:58:55;;;;;;;9.40;1.73;;;;;11.20;101703.00;;;;5084806;28;20203;-73
2023/02/01 02:01:22;;;;;;;8.20;1.90;;;;;11.20;101697.00;;;;5081646;28;20194;-72
2023/02/01 02:03:51;;;;;;;6.00;1.48;;;;;11.30;101697.00;;;;5090343;28;20186;-73
2023/02/01 02:06:27;;;;;;;6.90;1.50;;;;;11.30;101691.00;;;;5090220;28;20194;-73
2023/02/01 02:08:54;;;;;;;8.07;1.20;;;;;11.30;101690.00;;;;5083222;28;20194;-73
2023/02/01 02:11:22;;;;;;;4.07;1.10;;;;;11.30;101682.00;;;;5087435;28;20245;-72
2023/02/01 02:13:54;;;;;;;6.80;1.65;;;;;11.40;101682.00;;;;5088397;28;20198;-73
2023/02/01 02:16:51;;;;;;;9.27;1.77;;;;;11.30;101681.00;;;;5075727;28;20201;-73
2023/02/01 02:19:51;;;;;;;10.27;1.30;;;;;11.40;101682.00;;;;5083605;28;20207;-73
2023/02/01 02:22:47;;;;;;;5.28;1.08;;;;;11.40;101675.00;;;;5080455;28;20198;-73
2023/02/01 02:25:38;;;;;;;6.03;1.15;;;;;11.40;101673.00;;;;5085926;28;20195;-73
2023/02/01 02:28:21;;;;;;;7.85;1.50;;;;;11.50;101670.00;;;;5076623;28;20199;-73
2023/02/01 02:31:20;;;;;;;7.03;1.42;;;;;11.50;101678.00;;;;5082562;28;20218;-73
2023/02/01 02:34:04;;;;;;;9.90;2.25;;;;;11.60;101677.00;;;;5075730;28;20202;-73
2023/02/01 02:36:44;;;;;;;6.93;1.38;;;;;11.60;101670.00;;;;5088823;28;20209;-72
2023/02/01 02:39:24;;;;;;;4.50;1.15;;;;;11.60;101658.00;;;;5074005;28;20210;-73
2023/02/01 02:47:44;;;;;;;4.30;1.52;;;;;11.70;101652.00;;;;5069214;28;20233;-73
2023/02/01 03:04:18;;;;;;;9.90;1.30;;;;;12.10;101642.00;;;;5086589;28;20213;-73
2023/02/01 03:06:47;;;;;;;9.73;2.38;;;;;12.10;101624.00;;;;5089004;28;20186;-73
2023/02/01 03:09:22;;;;;;;9.60;1.90;;;;;12.20;101618.00;;;;5086600;28;20664;-73
2023/02/01 03:14:41;;;;;;;7.00;2.05;;;;;12.20;101632.00;;;;5070292;28;20309;-73
2023/02/01 03:17:12;;;;;;;9.32;1.48;;;;;12.20;101634.00;;;;5070246;28;20199;-72
2023/02/01 03:19:48;;;;;;;5.85;1.80;;;;;12.30;101630.00;;;;5084582;28;20206;-72
2023/02/01 03:22:22;;;;;;;4.28;1.23;;;;;12.30;101627.00;;;;5076569;28;20213;-73
2023/02/01 03:24:54;;;;;;;5.07;1.58;;;;;12.30;101624.00;;;;5085144;28;20614;-73
2023/02/01 03:27:25;;;;;;;9.20;1.92;;;;;12.30;101622.00;;;;5080481;28;20193;-73
2023/02/01 03:29:57;;;;;;;7.15;1.55;;;;;12.30;101621.00;;;;5086720;28;20657;-73
2023/02/01 03:32:25;;;;;;;11.98;1.52;;;;;12.30;101621.00;;;;5075698;28;20225;-72
2023/02/01 03:34:53;;;;;;;10.48;1.48;;;;;12.30;101620.00;;;;5067934;28;21064;-73
2023/02/01 03:37:26;;;;;;;9.45;1.65;;;;;12.20;101624.00;;;;5085713;28;20201;-73
2023/02/01 03:40:00;;;;;;;10.30;2.30;;;;;12.20;101632.00;;;;5086506;28;20234;-73
2023/02/01 03:42:35;;;;;;;6.78;2.03;;;;;12.20;101638.00;;;;5087390;28;20567;-73
2023/02/01 03:45:08;;;;;;;7.03;1.50;;;;;12.20;101626.00;;;;5087747;28;20194;-73
2023/02/01 03:47:38;;;;;;;8.68;1.65;;;;;12.20;101632.00;;;;5077777;28;20230;-73
2023/02/01 03:50:09;;;;;;;9.98;1.77;;;;;12.20;101631.00;;;;5070787;28;20206;-73
2023/02/01 03:52:41;;;;;;;6.18;1.83;;;;;12.10;101635.00;;;;5081811;28;20237;-73
2023/02/01 03:55:10;;;;;;;6.35;1.75;;;;;12.20;101639.00;;;;5087637;28;20195;-73
2023/02/01 03:57:44;;;;;;;9.10;2.53;;;;;12.10;101648.00;;;;5084066;28;20675;-73
2023/02/01 04:00:19;;;;;;;9.48;1.60;;;;;12.10;101651.00;;;;5079045;28;20194;-73
2023/02/01 04:02:46;;;;;;;7.82;1.17;;;;;12.20;101654.00;;;;5075338;28;20212;-73
2023/02/01 04:05:13;;;;;;;9.02;1.77;;;;;12.20;101648.00;;;;5074380;28;20206;-73
2023/02/01 04:07:42;;;;;;;5.28;1.27;;;;;12.20;101644.00;;;;5082989;28;20191;-73
2023/02/01 04:10:11;;;;;;;8.63;1.88;;;;;12.20;101642.00;;;;5087749;28;20653;-73
2023/02/01 04:12:38;;;;;;;2.33;0.93;;;;;12.20;101650.00;;;;5087860;28;20218;-73
2023/02/01 04:15:07;;;;;;;4.90;1.25;;;;;12.30;101644.00;;;;5084439;28;20186;-73
2023/02/01 04:17:34;;;;;;;6.50;1.23;;;;;12.30;101642.00;;;;5084733;28;20202;-73
2023/02/01 04:20:01;;;;;;;6.88;1.70;;;;;12.30;101623.00;;;;5085374;28;20195;-74
2023/02/01 04:22:29;;;;;;;10.18;1.80;;;;;12.30;101635.00;;;;5078412;28;20198;-73
2023/02/01 04:24:58;;;;;;;7.00;1.58;;;;;12.40;101641.00;;;;5088438;28;20206;-73
2023/02/01 04:27:25;;;;;;;5.13;1.88;;;;;12.40;101643.00;;;;5086606;28;20203;-73
2023/02/01 04:29:52;;;;;;;8.48;1.40;;;;;12.40;101644.00;;;;5086028;28;20699;-74
2023/02/01 04:32:20;;;;;;;9.15;2.20;;;;;12.40;101650.00;;;;5086876;28;20233;-73
2023/02/01 04:34:48;;;;;;;7.18;1.42;;;;;12.40;101642.00;;;;5074761;28;20200;-73
2023/02/01 04:37:15;;;;;;;6.88;1.25;;;;;12.40;101642.00;;;;5085930;28;20203;-73
2023/02/01 04:39:42;;;;;;;9.07;1.77;;;;;12.50;101636.00;;;;5088080;28;20194;-73
2023/02/01 04:42:12;;;;;;;6.32;2.05;;;;;12.50;101638.00;;;;5075678;28;20207;-73
2023/02/01 04:44:41;;;;;;;7.50;2.08;;;;;12.50;101645.00;;;;5079755;28;20196;-73
2023/02/01 04:47:09;;;;;;;8.43;1.73;;;;;12.60;101643.00;;;;5076151;28;20305;-73
2023/02/01 04:49:36;;;;;;;9.30;2.15;;;;;12.60;101635.00;;;;5078232;28;20206;-73
2023/02/01 04:52:04;;;;;;;11.27;1.85;;;;;12.60;101630.00;;;;5084603;28;20233;-74
2023/02/01 04:54:31;;;;;;;7.60;1.80;;;;;12.60;101631.00;;;;5074558;28;20195;-72
2023/02/01 04:56:58;;;;;;;5.38;1.55;;;;;12.60;101621.00;;;;5077986;28;20225;-73
2023/02/01 04:59:28;;;;;;;6.53;1.50;;;;;12.60;101617.00;;;;5071220;28;20195;-73
2023/02/01 05:01:55;;;;;;;6.55;1.48;;;;;12.60;101628.00;;;;5075221;28;20201;-73
2023/02/01 05:04:22;;;;;;;6.30;1.70;;;;;12.60;101629.00;;;;5088660;28;20206;-73
2023/02/01 05:06:49;;;;;;;4.00;1.23;;;;;12.60;101623.00;;;;5088511;28;20210;-73
2023/02/01 05:09:17;;;;;;;7.20;1.60;;;;;12.60;101628.00;;;;5083069;28;20187;-73
2023/02/01 05:14:30;;;;;;;11.90;1.80;;;;;12.60;101613.00;;;;5089570;28;20205;-73
2023/02/01 05:16:57;;;;;;;8.18;1.92;;;;;12.60;101625.00;;;;5088952;28;20268;-73
2023/02/01 05:19:25;;;;;;;11.23;1.88;;;;;12.60;101622.00;;;;5083438;28;20201;-73
2023/02/01 05:21:52;;;;;;;9.05;1.60;;;;;12.60;101614.00;;;;5083937;28;20201;-73
2023/02/01 05:24:20;;;;;;;4.93;1.42;;;;;12.60;101620.00;;;;5074600;28;20205;-73
2023/02/01 05:26:48;;;;;;;6.13;1.33;;;;;12.60;101616.00;;;;5080731;28;20195;-73
2023/02/01 05:29:17;;;;;;;8.20;1.60;;;;;12.60;101627.00;;;;5088579;28;20197;-73
2023/02/01 05:31:47;;;;;;;7.40;1.25;;;;;12.60;101623.00;;;;5083562;28;20245;-72
2023/02/01 05:34:15;;;;;;;6.82;2.03;;;;;12.60;101629.00;;;;5081989;28;20202;-73
2023/02/01 05:36:43;;;;;;;6.65;1.52;;;;;12.60;101625.00;;;;5070720;28;20679;-73
2023/02/01 05:39:11;;;;;;;10.48;1.73;;;;;12.60;101643.00;;;;5084418;28;20225;-72
2023/02/01 05:41:38;;;;;;;9.27;2.35;;;;;12.50;101640.00;;;;5069810;28;20244;-73
2023/02/01 05:44:07;;;;;;;8.00;2.10;;;;;12.50;101649.00;;;;5086354;28;20194;-73
2023/02/01 05:46:34;;;;;;;8.30;1.45;;;;;12.50;101641.00;;;;5075098;28;20227;-73
2023/02/01 05:49:04;;;;;;;6.53;1.98;;;;;12.50;101642.00;;;;5085029;28;20201;-73
2023/02/01 05:51:31;;;;;;;6.38;1.80;;;;;12.50;101639.00;;;;5085921;28;20218;-73
2023/02/01 05:53:59;;;;;;;8.77;2.65;;;;;12.50;101646.00;;;;5080782;28;20199;-73
2023/02/01 05:56:26;;;;;;;10.25;1.95;;;;;12.50;101634.00;;;;5074455;28;20200;-73
2023/02/01 05:58:54;;;;;;;9.30;1.63;;;;;12.50;101639.00;;;;5079198;28;21037;-73
2023/02/01 06:01:21;;;;;;;14.88;2.33;;;;;12.50;101633.00;;;;5083695;28;20657;-72
2023/02/01 06:03:49;;;;;;;5.90;1.48;;;;;12.50;101639.00;;;;5074904;28;20210;-72
2023/02/01 06:06:18;;;;;;;5.00;1.33;;;;;12.50;101623.00;;;;5077330;28;20199;-72
2023/02/01 06:08:46;;;;;;;6.55;1.50;;;;;12.50;101628.00;;;;5077219;28;20267;-72
2023/02/01 06:11:14;;;;;;;4.88;2.03;;;;;12.50;101636.00;;;;5071863;28;20205;-72
2023/02/01 06:13:41;;;;;;;8.00;2.13;;;;;12.50;101642.00;;;;5081883;28;20247;-72
2023/02/01 06:16:09;;;;;;;5.60;1.52;;;;;12.50;101640.00;;;;5075917;28;20203;-72
2023/02/01 06:18:37;;;;;;;6.22;1.30;;;;;12.50;101640.00;;;;5090006;28;20195;-73
2023/02/01 06:21:07;;;;;;;13.95;2.47;;;;;12.50;101643.00;;;;5085242;28;20679;-72
2023/02/01 06:23:35;;;;;;;5.07;1.42;;;;;12.50;101637.00;;;;5078111;28;20213;-73
2023/02/01 06:26:05;;;;;;;9.25;1.90;;;;;12.50;101643.00;;;;5081902;28;20572;-73
2023/02/01 06:28:33;;;;;;;8.77;1.65;;;;;12.50;101655.00;;;;5087893;28;20202;-73
2023/02/01 06:31:06;;;;;;;6.18;1.77;;;;;12.50;101658.00;;;;5078192;28;20210;-74
2023/02/01 06:33:34;;;;;;;7.70;1.70;;;;;12.50;101648.00;;;;5074570;28;20611;-73
2023/02/01 06:36:03;;;;;;;5.72;1.75;;;;;12.50;101641.00;;;;5078381;28;20195;-75
2023/02/01 06:38:31;;;;;;;5.43;1.30;;;;;12.50;101645.00;;;;5074841;28;20282;-74
2023/02/01 06:41:00;;;;;;;10.68;1.92;;;;;12.40;101657.00;;;;5076879;28;20210;-73
2023/02/01 06:43:28;;;;;;;7.63;1.75;;;;;12.40;101657.00;;;;5077783;28;20779;-74
2023/02/01 06:46:00;;;;;;;11.05;1.55;;;;;12.40;101659.00;;;;5070477;28;20223;-74
2023/02/01 06:48:27;;;;;;;6.57;1.20;;;;;12.40;101655.00;;;;5073534;28;20199;-73
2023/02/01 06:50:55;;;;;;;5.13;1.75;;;;;12.40;101652.00;;;;5082037;28;20210;-74
2023/02/01 06:53:23;;;;;;;11.60;1.77;;;;;12.40;101655.00;;;;5068706;28;20230;-73
2023/02/01 06:55:54;;;;;;;6.60;1.42;;;;;12.30;101655.00;;;;5082557;28;20213;-73
2023/02/01 06:58:22;;;;;;;7.95;1.92;;;;;12.40;101653.00;;;;5077305;28;20194;-73
2023/02/01 07:00:50;;;;;;;11.20;2.05;;;;;12.40;101657.00;;;;5079742;28;20279;-74
2023/02/01 07:03:17;;;;;;;7.28;1.63;;;;;12.40;101663.00;;;;5074320;28;20252;-73
2023/02/01 07:05:45;;;;;;;6.85;1.77;;;;;12.30;101660.00;;;;5082435;28;20663;-74
2023/02/01 07:08:12;;;;;;;6.18;1.38;;;;;12.30;101660.00;;;;5081135;28;20202;-74
2023/02/01 07:10:39;;;;;;;4.78;1.08;;;;;12.30;101657.00;;;;5069579;28;20207;-74
2023/02/01 07:13:07;;;;;;;9.15;1.42;;;;;12.40;101657.00;;;;5068255;28;20246;-74
2023/02/01 07:15:35;;;;;;;7.22;1.60;;;;;12.40;101669.00;;;;5085227;28;20208;-74
2023/02/01 07:18:03;;;;;;;4.88;1.40;;;;;12.40;101661.00;;;;5075491;28;20191;-74
2023/02/01 07:20:30;;;;;;;9.35;1.75;;;;;12.40;101665.00;;;;5080312;28;20672;-74
2023/02/01 07:22:58;;;;;;;11.98;1.85;;;;;12.40;101659.00;;;;5073538;28;20202;-74
2023/02/01 07:25:25;;;;;;;7.60;1.33;;;;;12.40;101661.00;;;;5076240;28;20194;-74
2023/02/01 07:27:53;;;;;;;6.65;1.25;;;;;12.40;101666.00;;;;5083057;28;20206;-74
2023/02/01 07:30:20;;;;;;;4.40;1.40;;;;;12.40;101663.00;;;;5069951;28;21051;-74
2023/02/01 07:32:49;;;;;;;4.40;1.25;;;;;12.40;101666.00;;;;5070222;28;20257;-74
2023/02/01 07:35:16;;;;;;;6.28;1.70;;;;;12.40;101666.00;;;;5082224;28;20565;-74
2023/02/01 07:37:43;;;;;;;10.55;2.28;;;;;12.50;101655.00;;;;5086853;28;20199;-74
2023/02/01 07:40:12;;;;;;;7.93;2.10;;;;;12.50;101657.00;;;;5074210;28;20199;-74
2023/02/01 07:42:39;;;;;;;6.47;1.17;;;;;12.50;101660.00;;;;5080870;28;20213;-74
2023/02/01 07:45:08;;;;;;;7.55;1.67;;;;;12.50;101660.00;;;;5086765;28;20198;-75
2023/02/01 07:47:35;;;;;;;12.23;2.08;;;;;12.50;101653.00;;;;5074111;28;20226;-74
2023/02/01 07:50:04;;;;;;;10.65;2.05;;;;;12.50;101669.00;;;;5085401;28;20190;-74
2023/02/01 07:52:31;;;;;;;5.07;1.33;;;;;12.50;101666.00;;;;5086676;28;20230;-73
2023/02/01 07:54:58;;;;;;;5.28;1.25;;;;;12.50;101671.00;;;;5077724;28;20194;-74
2023/02/01 07:57:26;;;;;;;9.25;1.63;;;;;12.50;101670.00;;;;5078337;28;20202;-74
2023/02/01 08:02:34;;;;;;;9.07;1.52;;;;;12.50;101678.00;;;;5070152;28;20194;-74
2023/02/01 08:05:04;;;;;;;8.05;2.13;;;;;12.50;101667.00;;;;5069877;28;20570;-74
2023/02/01 08:07:32;;;;;;;4.53;1.60;;;;;12.50;101679.00;;;;5080518;28;20209;-74
2023/02/01 08:09:59;;;;;;;5.90;1.90;;;;;12.50;101679.00;;;;5068251;28;20210;-74
2023/02/01 08:12:27;;;;;;;6.00;1.33;;;;;12.50;101677.00;;;;5068073;28;20222;-74
2023/02/01 08:14:56;;;;;;;5.53;1.50;;;;;12.50;101676.00;;;;5071779;28;20243;-74
2023/02/01 08:17:23;;;;;;;8.95;1.88;;;;;12.50;101691.00;;;;5085528;28;20202;-74
2023/02/01 08:19:50;;;;;;;5.13;2.00;;;;;12.50;101681.00;;;;5086856;28;20198;-74
2023/02/01 08:22:19;;;;;;;5.40;1.75;;;;;12.50;101683.00;;;;5069805;28;20199;-74
2023/02/01 08:24:49;;;;;;;6.50;1.42;;;;;12.50;101684.00;;;;5084703;28;20209;-73
2023/02/01 08:27:16;;;;;;;6.00;1.65;;;;;12.50;101686.00;;;;5080772;28;20198;-73
2023/02/01 08:29:44;;;;;;;7.00;1.10;;;;;12.50;101677.00;;;;5069121;28;20198;-73
2023/02/01 08:32:11;;;;;;;6.72;1.50;;;;;12.50;101660.00;;;;5080048;28;20199;-73
2023/02/01 08:34:38;;;;;;;7.65;1.20;;;;;12.50;101663.00;;;;5078691;28;20206;-75
2023/02/01 08:37:07;;;;;;;8.07;1.88;;;;;12.50;101677.00;;;;5083883;28;20203;-74
2023/02/01 08:39:36;;;;;;;4.72;1.10;;;;;12.50;101682.00;;;;5077795;28;20199;-74
2023/02/01 08:44:48;;;;;;;5.28;0.93;;;;;12.50;101668.00;;;;5078161;28;21039;-74
2023/02/01 08:47:15;;;;;;;8.23;1.88;;;;;12.60;101664.00;;;;5078340;28;20222;-74
2023/02/01 08:49:43;;;;;;;5.78;1.30;;;;;12.60;101660.00;;;;5081664;28;20195;-74
2023/02/01 08:52:10;;;;;;;8.30;1.58;;;;;12.60;101659.00;;;;5084470;28;20241;-75
2023/02/01 08:54:40;;;;;;;4.90;1.58;;;;;12.60;101656.00;;;;5085647;28;20225;-74
2023/02/01 08:57:09;;;;;;;9.30;1.95;;;;;12.70;101663.00;;;;5078708;28;20664;-74
2023/02/01 08:59:36;;;;;;;6.50;1.92;;;;;12.80;101657.00;;;;5078510;28;20285;-75
2023/02/01 09:02:03;;;;;;;8.13;1.88;;;;;12.90;101667.00;;;;5083738;28;20215;-74
2023/02/01 09:04:31;;;;;;;7.65;1.83;;;;;12.90;101663.00;;;;5088481;28;20195;-74
2023/02/01 09:06:58;;;;;;;5.28;1.48;;;;;13.00;101659.00;;;;5083510;28;20198;-75
2023/02/01 09:09:28;;;;;;;11.63;2.47;;;;;13.00;101654.00;;;;5073174;28;20202;-75
2023/02/01 09:11:57;;;;;;;6.30;1.38;;;;;13.10;101659.00;;;;5077260;28;20198;-74
2023/02/01 09:14:24;;;;;;;8.10;1.83;;;;;13.10;101653.00;;;;5072944;28;20227;-75
2023/02/01 09:16:52;;;;;;;8.55;2.08;;;;;13.20;101655.00;;;;5081561;28;20205;-74
2023/02/01 09:19:19;;;;;;;8.32;2.03;;;;;13.30;101649.00;;;;5070518;28;20195;-75
2023/02/01 09:21:46;;;;;;;5.75;1.70;;;;;13.30;101637.00;;;;5074955;28;20210;-73
2023/02/01 09:24:14;;;;;;;6.13;1.55;;;;;13.40;101639.00;;;;5082640;28;20206;-74
2023/02/01 09:26:41;;;;;;;8.82;1.83;;;;;13.40;101636.00;;;;5083319;28;20194;-74
2023/02/01 09:29:13;;;;;;;8.25;1.50;;;;;13.50;101643.00;;;;5089802;28;20571;-74
2023/02/01 09:31:41;;;;;;;6.90;1.48;;;;;13.60;101647.00;;;;5088381;28;20214;-74
2023/02/01 09:34:08;;;;;;;6.32;1.92;;;;;13.70;101656.00;;;;5089059;28;20244;-75
2023/02/01 09:36:36;;;;;;;9.45;1.90;;;;;13.70;101651.00;;;;5086235;28;20209;-75
2023/02/01 09:39:04;;;;;;;8.98;1.85;;;;;13.80;101652.00;;;;5070446;28;20195;-75
2023/02/01 09:41:43;;;;;;;9.45;2.25;;;;;13.80;101649.00;;;;5082202;28;20195;-75
2023/02/01 09:44:21;;;;;;;7.95;2.22;;;;;13.80;101655.00;;;;5070567;28;20202;-74
2023/02/01 09:46:51;;;;;;;9.50;2.17;;;;;13.90;101656.00;;;;5080604;28;20226;-74
2023/02/01 09:49:24;;;;;;;9.90;2.60;;;;;13.80;101659.00;;;;5078121;28;20629;-74
2023/02/01 09:51:53;;;;;;;6.53;2.03;;;;;13.90;101662.00;;;;5073635;28;20218;-74
2023/02/01 09:54:24;;;;;;;8.18;1.70;;;;;13.90;101658.00;;;;5076422;28;20214;-74
2023/02/01 09:56:57;;;;;;;6.88;1.70;;;;;13.90;101669.00;;;;5076111;28;20199;-75
2023/02/01 09:59:40;;;;;;;9.10;1.73;;;;;13.80;101666.00;;;;5080028;28;20209;-74
2023/02/01 10:02:26;;;;;;;7.80;1.73;;;;;13.80;101670.00;;;;5083953;28;20190;-75
2023/02/01 10:04:58;;;;;;;4.97;1.20;;;;;13.90;101669.00;;;;5083297;28;20237;-75
2023/02/01 10:07:34;;;;;;;5.97;1.17;;;;;13.90;101662.00;;;;5080907;28;20198;-74
2023/02/01 10:10:07;;;;;;;6.70;1.75;;;;;13.90;101650.00;;;;5082948;28;20194;-75
2023/02/01 10:13:06;;;;;;;6.53;1.73;;;;;13.90;101653.00;;;;5081785;28;20214;-75
2023/02/01 10:15:45;;;;;;;11.75;2.15;;;;;13.90;101651.00;;;;5081281;28;20284;-74
2023/02/01 10:18:33;;;;;;;5.20;1.50;;;;;13.90;101646.00;;;;5088608;28;20209;-74
2023/02/01 10:21:11;;;;;;;5.25;1.17;;;;;13.90;101647.00;;;;5075558;28;20561;-74
2023/02/01 10:24:13;;;;;;;12.85;2.95;;;;;13.80;101642.00;;;;5076489;28;20191;-75
2023/02/01 10:26:45;;;;;;;4.80;1.17;;;;;13.80;101652.00;;;;5032436;28;20202;-74
2023/02/01 10:29:18;;;;;;;5.88;1.80;;;;;13.80;101659.00;;;;5072146;28;20591;-75
2023/02/01 10:31:47;;;;;;;7.72;1.90;;;;;13.80;101654.00;;;;5074633;28;20202;-75
2023/02/01 10:34:21;;;;;;;8.20;1.70;;;;;13.80;101656.00;;;;5078359;28;20703;-74
2023/02/01 10:36:56;;;;;;;11.70;1.98;;;;;13.70;101651.00;;;;5072862;28;20205;-75
2023/02/01 10:39:24;;;;;;;7.22;1.80;;;;;13.70;101649.00;;;;5084758;28;20197;-75
2023/02/01 10:41:51;;;;;;;5.93;1.50;;;;;13.70;101650.00;;;;5080086;28;20564;-75
2023/02/01 10:44:24;;;;;;;4.10;1.35;;;;;13.70;101650.00;;;;5083577;28;20214;-74
2023/02/01 10:46:53;;;;;;;8.65;1.50;;;;;13.60;101641.00;;;;5088357;28;20218;-75
2023/02/01 10:49:27;;;;;;;5.40;1.70;;;;;13.60;101635.00;;;;5080362;28;20195;-75
2023/02/01 10:51:58;;;;;;;7.88;1.98;;;;;13.60;101650.00;;;;5077965;28;20215;-74
2023/02/01 10:54:35;;;;;;;11.15;2.30;;;;;13.50;101631.00;;;;5082472;28;20222;-74
2023/02/01 10:57:02;;;;;;;6.95;1.23;;;;;13.60;101629.00;;;;5083148;28;20198;-74
2023/02/01 10:59:32;;;;;;;9.90;1.77;;;;;13.60;101644.00;;;;5069477;28;20599;-75
2023/02/01 11:02:03;;;;;;;11.63;2.75;;;;;13.50;101635.00;;;;5084226;28;20828;-74
2023/02/01 11:04:35;;;;;;;9.77;2.85;;;;;13.50;101599.00;;;;5084372;28;20209;-75
2023/02/01 11:07:16;;;;;;;9.80;3.28;;;;;13.50;101644.00;;;;5086507;28;20198;-75
2023/02/01 11:09:51;;;;;;;10.65;1.92;;;;;13.50;101629.00;;;;5080837;28;20195;-75
2023/02/01 11:12:30;;;;;;;9.10;1.63;;;;;13.50;101615.00;;;;5068342;28;20287;-74
2023/02/01 11:15:13;;;;;;;7.00;2.20;;;;;13.50;101625.00;;;;5067935;28;20226;-74
2023/02/01 11:17:45;;;;;;;7.35;1.80;;;;;13.50;101637.00;;;;5082313;28;20194;-74
2023/02/01 11:20:16;;;;;;;6.72;1.58;;;;;13.60;101629.00;;;;5088100;28;20209;-73
2023/02/01 11:22:48;;;;;;;7.53;1.88;;;;;13.50;101630.00;;;;5074684;28;20205;-74
2023/02/01 11:25:17;;;;;;;7.45;1.30;;;;;13.60;101628.00;;;;5076974;28;20198;-74
2023/02/01 11:27:46;;;;;;;9.70;1.75;;;;;13.60;101616.00;;;;5084130;28;20194;-74
2023/02/01 11:30:19;;;;;;;9.43;2.53;;;;;13.50;101619.00;;;;5070747;28;20206;-75
2023/02/01 11:32:50;;;;;;;10.40;1.55;;;;;13.50;101617.00;;;;5074924;28;20656;-74
2023/02/01 11:35:21;;;;;;;9.80;1.55;;;;;13.50;101619.00;;;;5078800;28;20222;-74
2023/02/01 11:37:55;;;;;;;7.00;1.55;;;;;13.50;101623.00;;;;5071414;28;20218;-74
2023/02/01 11:40:29;;;;;;;10.10;2.08;;;;;13.50;101615.00;;;;5072733;28;20195;-74
2023/02/01 11:42:57;;;;;;;12.20;1.88;;;;;13.60;101609.00;;;;5075172;28;20209;-74
2023/02/01 11:45:30;;;;;;;8.02;1.95;;;;;13.60;101617.00;;;;5075814;28;20199;-74
2023/02/01 11:48:00;;;;;;;4.07;1.73;;;;;13.60;101617.00;;;;5086816;28;20190;-75
2023/02/01 11:50:35;;;;;;;8.40;2.08;;;;;13.60;101616.00;;;;5080180;28;20585;-75
2023/02/01 11:53:26;;;;;;;10.90;2.00;;;;;13.60;101634.00;;;;5074273;28;20209;-75
2023/02/01 11:56:03;;;;;;;7.95;2.67;;;;;13.60;101615.00;;;;5088262;28;20252;-74
2023/02/01 11:59:01;;;;;;;9.63;1.67;;;;;13.60;101624.00;;;;5084360;28;20251;-74
2023/02/01 12:01:44;;;;;;;4.82;1.35;;;;;13.70;101612.00;;;;5071964;28;20199;-74
2023/02/01 12:04:43;;;;;;;7.25;1.70;;;;;13.60;101598.00;;;;5075889;28;20573;-74
2023/02/01 12:07:18;;;;;;;6.10;1.20;;;;;13.80;101599.00;;;;5082251;28;20201;-74
2023/02/01 12:10:03;;;;;;;9.48;1.50;;;;;13.80;101595.00;;;;5074531;28;20853;-74
2023/02/01 12:12:41;;;;;;;3.90;1.33;;;;;13.90;101592.00;;;;5072666;28;20206;-74
2023/02/01 12:15:35;;;;;;;11.95;2.53;;;;;13.90;101597.00;;;;5087050;28;20217;-73
2023/02/01 12:18:24;;;;;;;5.47;1.55;;;;;14.00;101615.00;;;;5081390;28;20222;-74
2023/02/01 12:21:07;;;;;;;7.47;1.90;;;;;14.00;101579.00;;;;5083657;28;20191;-74
2023/02/01 12:23:45;;;;;;;7.07;2.00;;;;;14.10;101586.00;;;;5081485;28;20680;-74
2023/02/01 12:26:38;;;;;;;8.63;1.70;;;;;14.00;101592.00;;;;5080495;28;20198;-74
2023/02/01 12:29:27;;;;;;;5.30;1.23;;;;;14.10;101600.00;;;;5071082;28;20199;-73
2023/02/01 12:32:15;;;;;;;8.02;1.63;;;;;14.10;101585.00;;;;5084983;28;20195;-73
2023/02/01 12:35:09;;;;;;;9.25;2.17;;;;;14.10;101600.00;;;;5075133;28;20218;-73
2023/02/01 12:37:54;;;;;;;7.85;1.30;;;;;14.10;101596.00;;;;5090933;28;20195;-74
2023/02/01 12:40:39;;;;;;;6.53;1.33;;;;;14.20;101579.00;;;;5083467;28;20198;-74
2023/02/01 12:43:15;;;;;;;7.10;1.67;;;;;14.20;101586.00;;;;5086252;28;20671;-75
2023/02/01 12:45:46;;;;;;;6.85;2.03;;;;;14.20;101574.00;;;;5078306;28;21463;-73
2023/02/01 12:48:27;;;;;;;10.48;1.90;;;;;14.10;101604.00;;;;5075726;28;20718;-74
2023/02/01 12:50:59;;;;;;;7.47;1.13;;;;;14.20;101584.00;;;;5078904;28;20198;-74
2023/02/01 12:53:36;;;;;;;9.50;1.15;;;;;14.20;101593.00;;;;5079970;28;20672;-73
2023/02/01 12:56:07;;;;;;;10.98;2.08;;;;;14.30;101582.00;;;;5075856;28;20206;-74